createdAt,value
2024-01-08T00:01:33.157Z,95582.50
2024-01-08T00:04:03.223Z,95583.03
2024-01-08T00:06:32.109Z,95583.16
2024-01-08T00:09:00.837Z,95584.13
2024-01-08T00:11:28.692Z,95581.66
2024-01-08T00:13:56.422Z,95585.50
2024-01-08T00:16:25.465Z,95583.31
2024-01-08T00:18:53.245Z,95585.63
2024-01-08T00:21:20.992Z,95591.63
2024-01-08T00:23:48.591Z,95591.38
2024-01-08T00:26:16.272Z,95587.94
2024-01-08T00:28:44.252Z,95594.91
2024-01-08T00:31:11.885Z,95579.56
2024-01-08T00:33:41.173Z,95587.66
2024-01-08T00:36:09.038Z,95589.16
2024-01-08T00:38:37.069Z,95588.78
2024-01-08T00:41:06.004Z,95596.03
2024-01-08T00:43:33.782Z,95598.59
2024-01-08T00:46:02.004Z,95594.91
2024-01-08T00:48:29.638Z,95598.03
2024-01-08T00:50:58.614Z,95585.03
2024-01-08T00:53:26.633Z,95590.78
2024-01-08T00:55:54.253Z,95596.81
2024-01-08T00:58:21.953Z,95596.16
2024-01-08T01:00:49.652Z,95597.66
2024-01-08T01:07:38.444Z,95604.56
2024-01-08T01:10:06.840Z,95608.38
2024-01-08T01:12:34.545Z,95610.75
2024-01-08T01:15:02.539Z,95611.44
2024-01-08T01:17:30.318Z,95610.94
2024-01-08T01:19:58.200Z,95612.84
2024-01-08T01:22:26.491Z,95612.84
2024-01-08T01:24:55.424Z,95618.59
2024-01-08T01:27:23.394Z,95616.91
2024-01-08T01:29:50.987Z,95622.19
2024-01-08T01:32:19.038Z,95620.38
2024-01-08T01:34:46.674Z,95622.06
2024-01-08T01:37:14.628Z,95627.56
2024-01-08T01:39:42.260Z,95627.31
2024-01-08T01:42:11.864Z,95630.84
2024-01-08T01:44:39.542Z,95632.50
2024-01-08T01:47:07.807Z,95628.13
2024-01-08T01:49:36.076Z,95634.16
2024-01-08T01:52:03.810Z,95628.78
2024-01-08T01:54:31.533Z,95638.13
2024-01-08T01:57:01.797Z,95631.38
2024-01-08T01:59:31.243Z,95639.50
2024-01-08T02:01:59.480Z,95632.16
2024-01-08T02:04:31.178Z,95638.81
2024-01-08T02:07:01.820Z,95635.06
2024-01-08T02:09:30.005Z,95642.22
2024-01-08T02:11:57.477Z,95636.28
2024-01-08T02:14:25.229Z,95648.34
2024-01-08T02:16:54.286Z,95630.69
2024-01-08T02:19:21.974Z,95640.16
2024-01-08T02:21:50.625Z,95634.66
2024-01-08T02:24:19.742Z,95634.53
2024-01-08T02:26:47.327Z,95631.94
2024-01-08T02:29:15.444Z,95634.81
2024-01-08T02:31:42.938Z,95633.44
2024-01-08T02:34:10.557Z,95636.41
2024-01-08T02:36:38.170Z,95636.72
2024-01-08T02:39:06.328Z,95631.09
2024-01-08T02:41:35.813Z,95632.34
2024-01-08T02:44:03.476Z,95629.34
2024-01-08T02:46:31.475Z,95635.63
2024-01-08T02:49:00.572Z,95627.38
2024-01-08T02:51:28.690Z,95639.75
2024-01-08T02:53:56.307Z,95635.94
2024-01-08T02:56:24.716Z,95643.31
2024-01-08T02:58:53.701Z,95642.34
2024-01-08T03:01:21.416Z,95642.06
2024-01-08T03:03:49.466Z,95637.25
2024-01-08T03:06:17.151Z,95641.53
2024-01-08T03:08:44.845Z,95645.63
2024-01-08T03:11:13.003Z,95639.28
2024-01-08T03:13:40.437Z,95647.66
2024-01-08T03:16:10.031Z,95650.38
2024-01-08T03:18:40.377Z,95651.47
2024-01-08T03:21:08.399Z,95656.66
2024-01-08T03:23:36.497Z,95648.00
2024-01-08T03:26:04.400Z,95646.50
2024-01-08T03:28:32.398Z,95650.25
2024-01-08T03:31:00.168Z,95652.16
2024-01-08T03:33:30.114Z,95656.72
2024-01-08T03:35:57.872Z,95651.47
2024-01-08T03:38:27.155Z,95658.59
2024-01-08T03:40:55.190Z,95654.41
2024-01-08T03:43:22.832Z,95662.78
2024-01-08T03:45:50.483Z,95651.69
2024-01-08T03:48:18.127Z,95656.91
2024-01-08T03:50:47.302Z,95654.97
2024-01-08T03:53:15.006Z,95660.88
2024-01-08T03:55:42.871Z,95658.16
2024-01-08T03:58:10.753Z,95659.91
2024-01-08T04:00:38.458Z,95662.41
2024-01-08T04:03:06.435Z,95662.31
2024-01-08T04:05:34.652Z,95664.66
2024-01-08T04:08:03.746Z,95664.28
2024-01-08T04:10:31.402Z,95671.19
2024-01-08T04:12:58.993Z,95669.09
2024-01-08T04:15:26.588Z,95666.69
2024-01-08T04:17:54.366Z,95664.97
2024-01-08T04:20:22.208Z,95665.41
2024-01-08T04:22:50.959Z,95670.38
2024-01-08T04:25:19.931Z,95672.97
2024-01-08T04:27:49.496Z,95668.47
2024-01-08T04:30:17.288Z,95672.25
2024-01-08T04:32:45.580Z,95671.84
2024-01-08T04:35:13.311Z,95674.34
2024-01-08T04:37:41.963Z,95678.38
2024-01-08T04:40:10.899Z,95685.59
2024-01-08T04:42:39.847Z,95684.91
2024-01-08T04:45:08.378Z,95680.16
2024-01-08T04:47:36.070Z,95674.38
2024-01-08T04:50:04.074Z,95684.63
2024-01-08T04:52:31.759Z,95671.88
2024-01-08T04:54:59.360Z,95685.63
2024-01-08T04:57:27.001Z,95691.72
2024-01-08T04:59:56.441Z,95689.44
2024-01-08T05:02:24.393Z,95691.41
2024-01-08T05:04:52.312Z,95675.94
2024-01-08T05:07:20.027Z,95692.06
2024-01-08T05:09:47.666Z,95694.56
2024-01-08T05:12:15.266Z,95688.66
2024-01-08T05:14:42.922Z,95694.97
2024-01-08T05:17:11.880Z,95700.16
2024-01-08T05:19:39.644Z,95702.88
2024-01-08T05:22:07.251Z,95701.88
2024-01-08T05:24:35.118Z,95699.38
2024-01-08T05:27:02.756Z,95701.06
2024-01-08T05:29:30.408Z,95706.31
2024-01-08T05:31:58.104Z,95708.41
2024-01-08T05:34:27.099Z,95705.41
2024-01-08T05:36:54.876Z,95710.38
2024-01-08T05:39:22.568Z,95706.78
2024-01-08T05:41:50.296Z,95703.25
2024-01-08T05:44:18.317Z,95706.47
2024-01-08T05:46:46.910Z,95707.69
2024-01-08T05:49:15.197Z,95710.22
2024-01-08T05:51:44.372Z,95710.72
2024-01-08T05:54:11.995Z,95707.69
2024-01-08T05:56:39.709Z,95712.31
2024-01-08T05:59:09.421Z,95708.31
2024-01-08T06:01:37.154Z,95714.47
2024-01-08T06:04:04.889Z,95713.09
2024-01-08T06:06:33.300Z,95719.97
2024-01-08T06:09:02.299Z,95717.97
2024-01-08T06:11:29.939Z,95702.47
2024-01-08T06:13:57.703Z,95728.56
2024-01-08T06:16:25.335Z,95717.97
2024-01-08T06:18:53.047Z,95728.88
2024-01-08T06:21:20.742Z,95719.56
2024-01-08T06:23:49.805Z,95723.66
2024-01-08T06:26:19.167Z,95726.97
2024-01-08T06:28:46.830Z,95728.47
2024-01-08T06:31:14.479Z,95727.09
2024-01-08T06:33:43.404Z,95731.53
2024-01-08T06:36:11.135Z,95737.09
2024-01-08T06:38:38.827Z,95738.06
2024-01-08T06:41:06.733Z,95734.38
2024-01-08T06:43:35.708Z,95743.75
2024-01-08T06:46:03.426Z,95741.88
2024-01-08T06:48:31.145Z,95745.72
2024-01-08T06:51:01.926Z,95752.25
2024-01-08T06:53:29.751Z,95744.19
2024-01-08T06:55:57.401Z,95747.19
2024-01-08T06:58:25.040Z,95748.75
2024-01-08T07:00:54.175Z,95756.44
2024-01-08T07:03:21.918Z,95753.38
2024-01-08T07:05:49.926Z,95751.94
2024-01-08T07:08:18.638Z,95754.16
2024-01-08T07:10:46.416Z,95755.84
2024-01-08T07:13:14.068Z,95750.09
2024-01-08T07:15:43.100Z,95755.34
2024-01-08T07:18:12.447Z,95744.06
2024-01-08T07:20:40.921Z,95746.63
2024-01-08T07:23:11.936Z,95749.97
2024-01-08T07:25:40.694Z,95755.75
2024-01-08T07:28:09.718Z,95758.34
2024-01-08T07:30:38.584Z,95765.94
2024-01-08T07:33:08.333Z,95755.28
2024-01-08T07:35:37.664Z,95756.31
2024-01-08T07:38:05.763Z,95754.94
2024-01-08T07:40:33.524Z,95757.31
2024-01-08T07:43:01.445Z,95764.63
2024-01-08T07:45:29.461Z,95762.00
2024-01-08T07:47:58.120Z,95764.63
2024-01-08T07:50:26.149Z,95763.72
2024-01-08T07:52:55.221Z,95768.13
2024-01-08T07:55:23.098Z,95775.19
2024-01-08T07:57:50.711Z,95776.41
2024-01-08T08:00:21.038Z,95774.94
2024-01-08T08:02:48.788Z,95783.41
2024-01-08T08:05:21.591Z,95787.34
2024-01-08T08:07:50.973Z,95792.75
2024-01-08T08:10:22.738Z,95793.44
2024-01-08T08:12:53.173Z,95797.41
2024-01-08T08:15:20.957Z,95794.91
2024-01-08T08:20:44.795Z,95797.44
2024-01-08T08:23:13.514Z,95805.50
2024-01-08T08:25:42.915Z,95804.41
2024-01-08T08:31:02.146Z,95815.00
2024-01-08T08:33:29.971Z,95813.78
2024-01-08T08:35:57.677Z,95812.97
2024-01-08T08:38:25.452Z,95820.09
2024-01-08T08:40:54.788Z,95822.41
2024-01-08T08:43:22.476Z,95816.28
2024-01-08T08:45:50.158Z,95816.00
2024-01-08T08:48:17.833Z,95813.66
2024-01-08T08:50:48.107Z,95817.63
2024-01-08T08:53:15.894Z,95813.78
2024-01-08T08:55:43.724Z,95815.59
2024-01-08T08:58:12.979Z,95821.25
2024-01-08T09:00:40.657Z,95819.53
2024-01-08T09:03:08.391Z,95817.25
2024-01-08T09:05:40.367Z,95825.16
2024-01-08T09:08:11.438Z,95830.81
2024-01-08T09:10:39.100Z,95825.31
2024-01-08T09:13:06.738Z,95816.63
2024-01-08T09:15:35.744Z,95836.19
2024-01-08T09:18:03.581Z,95839.81
2024-01-08T09:20:32.039Z,95845.78
2024-01-08T09:23:00.176Z,95848.56
2024-01-08T09:25:28.179Z,95844.88
2024-01-08T09:27:55.828Z,95849.75
2024-01-08T09:30:23.550Z,95843.38
2024-01-08T09:32:52.810Z,95841.72
2024-01-08T09:35:20.716Z,95844.78
2024-01-08T09:37:48.327Z,95848.84
2024-01-08T09:40:16.092Z,95853.91
2024-01-08T09:42:43.888Z,95856.66
2024-01-08T09:45:13.368Z,95850.75
2024-01-08T09:47:42.772Z,95853.66
2024-01-08T09:50:14.567Z,95852.44
2024-01-08T09:52:44.173Z,95862.16
2024-01-08T09:55:12.073Z,95860.31
2024-01-08T09:57:39.897Z,95868.72
2024-01-08T10:00:08.729Z,95869.81
2024-01-08T10:02:36.503Z,95863.25
2024-01-08T10:05:04.455Z,95861.19
2024-01-08T10:07:36.631Z,95841.44
2024-01-08T10:10:06.438Z,95848.44
2024-01-08T10:12:34.427Z,95843.47
2024-01-08T10:15:03.777Z,95847.78
2024-01-08T10:17:36.829Z,95851.69
2024-01-08T10:20:10.950Z,95841.78
2024-01-08T10:22:40.674Z,95848.91
2024-01-08T10:25:08.959Z,95843.97
2024-01-08T10:27:36.898Z,95850.72
2024-01-08T10:30:05.488Z,95852.31
2024-01-08T10:32:33.373Z,95851.81
2024-01-08T10:35:03.376Z,95849.38
2024-01-08T10:37:31.576Z,95848.47
2024-01-08T10:40:02.195Z,95851.38
2024-01-08T10:42:30.184Z,95854.50
2024-01-08T10:44:57.856Z,95851.09
2024-01-08T10:47:29.451Z,95846.44
2024-01-08T10:49:59.865Z,95842.59
2024-01-08T10:52:29.812Z,95849.06
2024-01-08T10:55:09.535Z,95834.72
2024-01-08T10:58:04.063Z,95835.75
2024-01-08T11:00:33.963Z,95846.72
2024-01-08T11:03:05.044Z,95841.50
2024-01-08T11:05:34.484Z,95834.78
2024-01-08T11:08:04.409Z,95842.50
2024-01-08T11:10:32.052Z,95838.09
2024-01-08T11:13:01.012Z,95839.47
2024-01-08T11:15:30.024Z,95837.97
2024-01-08T11:18:00.175Z,95837.38
2024-01-08T11:20:42.681Z,95833.69
2024-01-08T11:23:35.384Z,95836.75
2024-01-08T11:26:04.652Z,95832.88
2024-01-08T11:28:35.579Z,95833.31
2024-01-08T11:31:38.305Z,95837.44
2024-01-08T11:34:35.855Z,95838.00
2024-01-08T11:37:25.524Z,95838.97
2024-01-08T11:39:53.209Z,95832.53
2024-01-08T11:42:21.737Z,95840.75
2024-01-08T11:44:51.520Z,95818.94
2024-01-08T11:47:19.322Z,95844.59
2024-01-08T11:49:47.942Z,95838.13
2024-01-08T11:52:16.778Z,95838.69
2024-01-08T11:54:49.476Z,95838.16
2024-01-08T11:57:18.640Z,95835.53
2024-01-08T11:59:46.614Z,95837.31
2024-01-08T12:02:16.689Z,95838.41
2024-01-08T12:04:53.667Z,95837.31
2024-01-08T12:07:23.037Z,95829.63
2024-01-08T12:09:50.847Z,95830.72
2024-01-08T12:12:20.015Z,95835.13
2024-01-08T12:14:49.077Z,95821.25
2024-01-08T12:17:19.723Z,95843.22
2024-01-08T12:19:49.860Z,95836.06
2024-01-08T12:22:18.727Z,95836.34
2024-01-08T12:24:49.220Z,95845.41
2024-01-08T12:27:19.026Z,95839.91
2024-01-08T12:29:47.851Z,95838.16
2024-01-08T12:32:17.304Z,95836.78
2024-01-08T12:34:46.591Z,95843.34
2024-01-08T12:37:15.410Z,95833.03
2024-01-08T12:39:43.100Z,95842.50
2024-01-08T12:42:12.991Z,95842.13
2024-01-08T12:44:41.625Z,95841.44
2024-01-08T12:47:09.629Z,95845.53
2024-01-08T12:49:37.986Z,95839.25
2024-01-08T12:52:11.218Z,95843.88
2024-01-08T12:54:41.063Z,95843.63
2024-01-08T12:57:09.083Z,95845.28
2024-01-08T12:59:38.251Z,95840.47
2024-01-08T13:02:06.616Z,95832.78
2024-01-08T13:04:34.237Z,95850.06
2024-01-08T13:07:02.007Z,95850.22
2024-01-08T13:09:31.019Z,95851.03
2024-01-08T13:11:58.688Z,95844.44
2024-01-08T13:14:26.325Z,95853.78
2024-01-08T13:16:53.950Z,95842.91
2024-01-08T13:19:22.283Z,95838.25
2024-01-08T13:21:49.145Z,95852.22
2024-01-08T13:24:16.934Z,95848.41
2024-01-08T13:26:47.197Z,95857.63
2024-01-08T13:29:15.248Z,95846.91
2024-01-08T13:31:43.029Z,95857.59
2024-01-08T13:34:10.965Z,95858.81
2024-01-08T13:36:39.577Z,95861.81
2024-01-08T13:39:09.200Z,95867.75
2024-01-08T13:41:39.118Z,95868.97
2024-01-08T13:44:09.917Z,95877.63
2024-01-08T13:46:37.742Z,95874.88
2024-01-08T13:49:05.543Z,95869.81
2024-01-08T13:51:33.490Z,95871.06
2024-01-08T13:54:01.179Z,95875.97
2024-01-08T13:56:28.827Z,95881.69
2024-01-08T13:58:56.838Z,95882.56
2024-01-08T14:01:25.812Z,95879.66
2024-01-08T14:03:53.499Z,95881.16
2024-01-08T14:06:21.169Z,95883.50
2024-01-08T14:08:48.903Z,95886.69
2024-01-08T14:11:16.657Z,95890.94
2024-01-08T14:13:44.356Z,95891.72
2024-01-08T14:16:13.073Z,95889.53
2024-01-08T14:18:42.280Z,95902.53
2024-01-08T14:21:10.137Z,95890.25
2024-01-08T14:23:37.839Z,95891.06
2024-01-08T14:26:05.302Z,95901.50
2024-01-08T14:28:33.391Z,95901.38
2024-01-08T14:31:01.333Z,95905.75
2024-01-08T14:33:28.980Z,95911.22
2024-01-08T14:35:58.471Z,95919.28
2024-01-08T14:38:26.560Z,95919.44
2024-01-08T14:40:54.070Z,95912.72
2024-01-08T14:43:21.506Z,95919.69
2024-01-08T14:45:50.583Z,95926.78
2024-01-08T14:48:18.899Z,95929.88
2024-01-08T14:50:46.804Z,95929.19
2024-01-08T14:53:15.909Z,95930.84
2024-01-08T14:55:43.540Z,95935.91
2024-01-08T14:58:11.202Z,95940.19
2024-01-08T15:00:38.912Z,95943.03
2024-01-08T15:03:06.886Z,95946.28
2024-01-08T15:05:34.901Z,95946.38
2024-01-08T15:08:03.870Z,95946.50
2024-01-08T15:10:33.880Z,95946.41
2024-01-08T15:13:01.594Z,95951.13
2024-01-08T15:15:29.242Z,95951.94
2024-01-08T15:17:57.018Z,95953.22
2024-01-08T15:20:24.733Z,95950.53
2024-01-08T15:22:52.647Z,95952.88
2024-01-08T15:25:20.390Z,95957.28
2024-01-08T15:27:49.754Z,95954.19
2024-01-08T15:30:19.037Z,95953.16
2024-01-08T15:32:46.957Z,95960.63
2024-01-08T15:35:14.923Z,95960.69
2024-01-08T15:37:42.727Z,95960.50
2024-01-08T15:40:11.466Z,95957.03
2024-01-08T15:42:39.213Z,95969.59
2024-01-08T15:45:09.154Z,95957.50
2024-01-08T15:47:37.319Z,95974.13
2024-01-08T15:50:06.459Z,95976.66
2024-01-08T15:52:34.504Z,95981.31
2024-01-08T15:55:02.043Z,95985.97
2024-01-08T15:57:29.628Z,95980.88
2024-01-08T15:59:57.334Z,95984.09
2024-01-08T16:02:28.367Z,95990.66
2024-01-08T16:04:56.618Z,95999.63
2024-01-08T16:07:24.502Z,95991.63
2024-01-08T16:09:52.215Z,96000.06
2024-01-08T16:12:20.627Z,95998.03
2024-01-08T16:14:48.546Z,96008.19
2024-01-08T16:17:16.773Z,95990.13
2024-01-08T16:19:45.852Z,96002.03
2024-01-08T16:22:13.603Z,96002.31
2024-01-08T16:24:41.372Z,95999.31
2024-01-08T16:27:09.535Z,95998.63
2024-01-08T16:29:37.275Z,95998.34
2024-01-08T16:32:06.051Z,96008.97
2024-01-08T16:34:41.825Z,96009.97
2024-01-08T16:37:18.510Z,96013.41
2024-01-08T16:39:46.125Z,96022.56
2024-01-08T16:42:13.721Z,96015.44
2024-01-08T16:44:41.502Z,96019.38
2024-01-08T16:47:09.675Z,96026.16
2024-01-08T16:49:38.071Z,96023.25
2024-01-08T16:52:07.506Z,96035.19
2024-01-08T16:54:36.493Z,96028.72
2024-01-08T16:57:04.309Z,96027.38
2024-01-08T16:59:31.946Z,96033.75
2024-01-08T17:01:59.860Z,96023.56
2024-01-08T17:04:27.567Z,96032.66
2024-01-08T17:06:55.340Z,96027.44
2024-01-08T17:09:23.038Z,96031.66
2024-01-08T17:11:52.631Z,96033.03
2024-01-08T17:14:20.335Z,96035.56
2024-01-08T17:16:47.992Z,96032.66
2024-01-08T17:19:15.717Z,96034.63
2024-01-08T17:21:43.460Z,96035.78
2024-01-08T17:24:11.231Z,96025.75
2024-01-08T17:26:39.603Z,96040.53
2024-01-08T17:29:09.173Z,96045.03
2024-01-08T17:31:38.039Z,96035.78
2024-01-08T17:34:05.905Z,96040.00
2024-01-08T17:36:33.994Z,96036.59
2024-01-08T17:39:01.655Z,96046.38
2024-01-08T17:41:29.887Z,96058.31
2024-01-08T17:43:57.673Z,96045.94
2024-01-08T17:46:27.421Z,96063.94
2024-01-08T17:48:55.732Z,96061.00
2024-01-08T17:51:23.434Z,96065.31
2024-01-08T17:53:51.189Z,96064.34
2024-01-08T17:56:19.029Z,96066.53
2024-01-08T17:58:46.707Z,96059.09
2024-01-08T18:01:14.936Z,96058.06
2024-01-08T18:03:43.962Z,96062.91
2024-01-08T18:06:12.074Z,96059.03
2024-01-08T18:08:39.968Z,96065.75
2024-01-08T18:11:09.975Z,96064.34
2024-01-08T18:13:37.850Z,96067.78
2024-01-08T18:16:06.090Z,96065.38
2024-01-08T18:18:33.823Z,96062.13
2024-01-08T18:21:02.806Z,96071.94
2024-01-08T18:23:30.547Z,96065.13
2024-01-08T18:25:58.166Z,96059.09
2024-01-08T18:28:26.089Z,96074.97
2024-01-08T18:30:56.513Z,96071.09
2024-01-08T18:33:26.273Z,96078.03
2024-01-08T18:35:54.207Z,96081.78
2024-01-08T18:38:23.386Z,96080.81
2024-01-08T18:40:51.807Z,96083.56
2024-01-08T18:43:20.209Z,96084.75
2024-01-08T18:45:48.726Z,96083.38
2024-01-08T18:48:16.538Z,96091.59
2024-01-08T18:50:44.492Z,96086.19
2024-01-08T18:53:12.471Z,96089.16
2024-01-08T18:55:41.456Z,96096.50
2024-01-08T18:58:09.100Z,96092.25
2024-01-08T19:00:38.453Z,96102.91
2024-01-08T19:03:06.963Z,96097.28
2024-01-08T19:05:34.738Z,96081.56
2024-01-08T19:08:02.400Z,96100.00
2024-01-08T19:10:30.090Z,96105.00
2024-01-08T19:12:59.062Z,96103.03
2024-01-08T19:15:27.189Z,96109.94
2024-01-08T19:17:55.023Z,96102.44
2024-01-08T19:20:24.140Z,96107.22
2024-01-08T19:22:54.103Z,96108.53
2024-01-08T19:25:21.952Z,96111.94
2024-01-08T19:27:49.855Z,96115.75
2024-01-08T19:30:19.164Z,96121.56
2024-01-08T19:32:46.911Z,96117.84
2024-01-08T19:35:15.851Z,96118.06
2024-01-08T19:37:43.899Z,96114.66
2024-01-08T19:40:12.521Z,96117.38
2024-01-08T19:42:40.177Z,96118.22
2024-01-08T19:45:09.748Z,96113.13
2024-01-08T19:47:38.801Z,96112.09
2024-01-08T19:50:07.790Z,96120.00
2024-01-08T19:52:36.285Z,96120.72
2024-01-08T19:55:04.066Z,96127.22
2024-01-08T19:57:31.853Z,96123.34
2024-01-08T19:59:59.561Z,96126.56
2024-01-08T20:02:28.560Z,96122.06
2024-01-08T20:04:57.705Z,96127.59
2024-01-08T20:07:25.485Z,96126.44
2024-01-08T20:09:53.201Z,96122.06
2024-01-08T20:12:20.834Z,96123.34
2024-01-08T20:14:48.514Z,96119.22
2024-01-08T20:17:17.228Z,96123.47
2024-01-08T20:19:46.274Z,96120.78
2024-01-08T20:22:15.493Z,96132.38
2024-01-08T20:24:43.628Z,96130.00
2024-01-08T20:27:11.316Z,96125.72
2024-01-08T20:29:39.253Z,96142.63
2024-01-08T20:32:07.701Z,96128.34
2024-01-08T20:34:35.691Z,96130.56
2024-01-08T20:37:03.456Z,96132.59
2024-01-08T20:39:32.512Z,96137.69
2024-01-08T20:42:01.256Z,96135.22
2024-01-08T20:44:28.938Z,96138.16
2024-01-08T20:46:56.605Z,96144.44
2024-01-08T20:49:27.862Z,96130.09
2024-01-08T20:51:56.385Z,96133.66
2024-01-08T20:54:24.358Z,96134.94
2024-01-08T20:56:53.476Z,96134.72
2024-01-08T20:59:21.211Z,96131.19
2024-01-08T21:01:48.880Z,96136.25
2024-01-08T21:04:17.351Z,96137.28
2024-01-08T21:06:45.051Z,96138.97
2024-01-08T21:09:12.881Z,96141.22
2024-01-08T21:11:40.527Z,96137.41
2024-01-08T21:14:09.577Z,96139.44
2024-01-08T21:16:37.420Z,96136.22
2024-01-08T21:19:06.293Z,96143.66
2024-01-08T21:21:34.197Z,96147.34
2024-01-08T21:24:01.841Z,96145.69
2024-01-08T21:26:29.517Z,96151.97
2024-01-08T21:28:57.399Z,96146.97
2024-01-08T21:31:26.381Z,96145.56
2024-01-08T21:33:54.827Z,96151.34
2024-01-08T21:36:22.533Z,96151.09
2024-01-08T21:38:50.199Z,96151.47
2024-01-08T21:41:17.891Z,96151.47
2024-01-08T21:43:45.615Z,96149.94
2024-01-08T21:46:13.230Z,96156.06
2024-01-08T21:48:45.462Z,96148.88
2024-01-08T21:51:13.529Z,96151.69
2024-01-08T21:53:41.501Z,96140.59
2024-01-08T21:56:09.428Z,96151.78
2024-01-08T21:58:37.110Z,96155.66
2024-01-08T22:01:05.022Z,96151.59
2024-01-08T22:03:32.684Z,96157.00
2024-01-08T22:06:01.898Z,96151.06
2024-01-08T22:08:29.691Z,96152.53
2024-01-08T22:10:57.336Z,96142.22
2024-01-08T22:13:25.914Z,96159.66
2024-01-08T22:15:53.563Z,96148.50
2024-01-08T22:18:21.403Z,96145.19
2024-01-08T22:20:49.084Z,96150.28
2024-01-08T22:23:18.154Z,96141.41
2024-01-08T22:25:45.798Z,96148.28
2024-01-08T22:28:13.686Z,96139.53
2024-01-08T22:30:41.647Z,96150.28
2024-01-08T22:33:09.961Z,96143.66
2024-01-08T22:35:37.657Z,96144.69
2024-01-08T22:38:05.622Z,96136.47
2024-01-08T22:40:34.603Z,96143.25
2024-01-08T22:43:02.282Z,96147.03
2024-01-08T22:45:29.888Z,96151.66
2024-01-08T22:47:57.648Z,96145.59
2024-01-08T22:50:25.366Z,96145.56
2024-01-08T22:52:53.135Z,96133.69
2024-01-08T22:55:20.847Z,96145.31
2024-01-08T22:57:50.177Z,96141.56
2024-01-08T23:00:19.718Z,96147.31
2024-01-08T23:02:47.462Z,96150.31
2024-01-08T23:05:15.268Z,96145.44
2024-01-08T23:07:43.079Z,96157.19
2024-01-08T23:10:11.191Z,96146.97
2024-01-08T23:12:38.691Z,96151.06
2024-01-08T23:15:08.184Z,96158.13
2024-01-08T23:17:35.917Z,96143.00
2024-01-08T23:20:04.276Z,96158.84
2024-01-08T23:22:31.882Z,96149.91
2024-01-08T23:24:59.627Z,96151.91
2024-01-08T23:27:27.583Z,96154.53
2024-01-08T23:29:56.619Z,96153.44
2024-01-08T23:32:25.716Z,96162.16
2024-01-08T23:34:53.851Z,96155.72
2024-01-08T23:37:21.500Z,96154.09
2024-01-08T23:39:49.118Z,96158.31
2024-01-08T23:42:16.730Z,96161.03
2024-01-08T23:44:44.409Z,96145.28
2024-01-08T23:47:12.183Z,96134.59
2024-01-08T23:49:41.219Z,96161.53
2024-01-08T23:52:10.066Z,96152.69
2024-01-08T23:54:37.651Z,96162.88
2024-01-08T23:57:05.828Z,96157.69
2024-01-08T23:59:33.315Z,96156.72
